This is the latest recevied weather packets stored in our database for station/object YD2CLX-14. If no packets are shown the sender has not sent any weather packets the latest 1 day(s).
| Time | Temp. | Humidity | Pressure | Rain* | Wind** | Luminosity | Snow |
|---|---|---|---|---|---|---|---|
| 1778044852 | 28.89° C | 66% | 807.7 hPa | 0 mm | - | - | - |
| 1778044252 | 28.89° C | 66% | 807.7 hPa | 0 mm | - | - | - |
| 1778043952 | 28.89° C | 66% | 807.7 hPa | 0 mm | - | - | - |
| 1778043655 | 28.89° C | 66% | 807.7 hPa | 0 mm | - | - | - |
| 1778043352 | 28.89° C | 66% | 807.7 hPa | 0 mm | - | - | - |
| 1778042452 | 28.89° C | 66% | 807.7 hPa | 0 mm | - | - | - |
| 1778042152 | 28.89° C | 66% | 807.7 hPa | 0 mm | - | - | - |
| 1778041552 | 28.89° C | 66% | 807.7 hPa | 0 mm | - | - | - |
| 1778041252 | 28.89° C | 66% | 807.7 hPa | 0 mm | - | - | - |
| 1778040952 | 28.89° C | 66% | 807.7 hPa | 0 mm | - | - | - |
| 1778040652 | 28.89° C | 66% | 807.7 hPa | 0 mm | - | - | - |
| 1778040352 | 28.89° C | 66% | 807.7 hPa | 0 mm | - | - | - |
| 1778039752 | 28.89° C | 66% | 807.7 hPa | 0 mm | - | - | - |
| 1778039452 | 28.33° C | 68% | 807.7 hPa | 0 mm | - | - | - |
| 1778038852 | 25° C | 72% | 807.9 hPa | 0 mm | - | - | - |
| 1778038552 | 22.78° C | 80% | 807.9 hPa | 0 mm | - | - | - |
| 1778038252 | 23.89° C | 75% | 808 hPa | 0 mm | - | - | - |
| 1778037952 | 24.44° C | 74% | 807.9 hPa | 0 mm | - | - | - |
| 1778037652 | 23.89° C | 76% | 808 hPa | 0 mm | - | - | - |
| 1778037352 | 23.89° C | 78% | 808 hPa | 0 mm | - | - | - |
| 1778037052 | 23.89° C | 76% | 808 hPa | 0 mm | - | - | - |
| 1778036752 | 22.78° C | 78% | 808 hPa | 0 mm | - | - | - |
| 1778036452 | 23.33° C | 78% | 808.1 hPa | 0 mm | - | - | - |
| 1778036152 | 23.89° C | 75% | 808.1 hPa | 0 mm | - | - | - |
| 1778035852 | 25.56° C | 70% | 808.1 hPa | 0 mm | - | - | - |
* Rain latest hour (hover to see other rain measurements)
** Current wind speed in m/s (hover to see current wind gust speed)